createdAt,value
2022-11-25T00:04:37.296Z,3.53
2022-11-25T00:09:39.128Z,3.55
2022-11-25T00:14:41.972Z,4.18
2022-11-25T00:19:43.554Z,4.20
2022-11-25T00:24:45.211Z,4.47
2022-11-25T00:29:46.898Z,4.05
2022-11-25T00:34:48.626Z,3.90
2022-11-25T00:39:50.434Z,2.92
2022-11-25T00:44:52.622Z,1.65
2022-11-25T00:49:54.980Z,1.65
2022-11-25T00:54:56.679Z,1.05
2022-11-25T00:59:58.357Z,1.20
2022-11-25T01:05:00.126Z,0.60
2022-11-25T01:10:01.727Z,0.80
2022-11-25T01:15:03.647Z,0.60
2022-11-25T01:20:05.998Z,0.43
2022-11-25T01:25:08.065Z,0.65
2022-11-25T01:30:12.899Z,1.13
2022-11-25T01:35:14.741Z,1.42
2022-11-25T01:40:17.028Z,2.00
2022-11-25T01:45:37.345Z,2.78
2022-11-25T01:50:40.035Z,3.60
2022-11-25T01:55:48.583Z,3.72
2022-11-25T02:00:53.407Z,4.28
2022-11-25T02:06:17.233Z,3.90
2022-11-25T02:11:21.603Z,4.07
2022-11-25T02:16:23.399Z,4.80
2022-11-25T02:21:33.863Z,4.07
2022-11-25T02:26:35.795Z,4.60
2022-11-25T02:31:37.614Z,4.40
2022-11-25T02:36:39.460Z,4.68
2022-11-25T02:41:46.445Z,4.35
2022-11-25T02:46:48.464Z,4.57
2022-11-25T02:51:50.098Z,4.15
2022-11-25T02:56:52.531Z,4.20
2022-11-25T03:01:54.406Z,4.75
2022-11-25T03:06:56.063Z,4.15
2022-11-25T03:12:17.701Z,4.10
2022-11-25T03:22:21.243Z,4.28
2022-11-25T03:27:22.906Z,4.18
2022-11-25T03:32:24.788Z,3.67
2022-11-25T03:37:26.644Z,4.07
2022-11-25T03:42:28.449Z,3.75
2022-11-25T03:47:31.345Z,3.85
2022-11-25T03:52:33.233Z,3.80
2022-11-25T03:57:35.453Z,4.05
2022-11-25T04:02:37.320Z,4.50
2022-11-25T04:07:39.070Z,4.47
2022-11-25T04:12:48.513Z,4.10
2022-11-25T04:17:57.217Z,4.30
2022-11-25T04:22:59.341Z,3.90
2022-11-25T04:28:03.172Z,3.55
2022-11-25T04:33:08.326Z,3.40
2022-11-25T04:38:10.226Z,3.97
2022-11-25T04:43:13.541Z,3.47
2022-11-25T04:48:21.713Z,3.67
2022-11-25T04:53:23.669Z,2.35
2022-11-25T04:58:44.127Z,2.63
2022-11-25T05:03:54.481Z,2.53
2022-11-25T05:08:59.936Z,3.40
2022-11-25T05:14:02.086Z,3.03
2022-11-25T05:19:04.099Z,2.70
2022-11-25T05:24:06.027Z,2.80
2022-11-25T05:29:10.169Z,3.00
2022-11-25T05:34:12.632Z,3.67
2022-11-25T05:39:14.542Z,3.40
2022-11-25T05:44:36.710Z,3.10
2022-11-25T05:49:38.654Z,3.20
2022-11-25T05:54:40.493Z,2.67
2022-11-25T05:59:43.642Z,2.40
2022-11-25T06:04:54.247Z,2.85
2022-11-25T06:10:01.508Z,2.97
2022-11-25T06:15:06.741Z,2.13
2022-11-25T06:20:11.014Z,2.90
2022-11-25T06:25:12.954Z,2.40
2022-11-25T06:30:17.039Z,2.17
2022-11-25T06:35:26.021Z,2.23
2022-11-25T06:40:31.220Z,2.40
2022-11-25T06:45:33.539Z,2.05
2022-11-25T06:50:35.135Z,2.50
2022-11-25T06:55:36.891Z,2.65
2022-11-25T07:00:38.561Z,1.75
2022-11-25T07:05:40.133Z,1.80
2022-11-25T07:10:41.725Z,1.42
2022-11-25T07:15:43.521Z,1.75
2022-11-25T07:20:45.144Z,1.70
2022-11-25T07:25:46.814Z,1.65
2022-11-25T07:31:22.713Z,1.90
2022-11-25T07:36:11.777Z,1.50
2022-11-25T07:41:15.820Z,1.60
2022-11-25T07:46:21.998Z,2.05
2022-11-25T07:51:29.790Z,1.73
2022-11-25T07:56:34.106Z,1.95
2022-11-25T08:01:35.860Z,1.40
2022-11-25T08:06:40.500Z,1.63
2022-11-25T08:11:42.702Z,1.83
2022-11-25T08:16:45.420Z,1.85
2022-11-25T08:21:50.047Z,1.85
2022-11-25T08:26:52.218Z,1.65
2022-11-25T08:31:54.087Z,1.80
2022-11-25T08:36:55.733Z,2.03
2022-11-25T08:41:57.506Z,1.50
2022-11-25T10:45:43.014Z,2.92
2022-11-25T10:51:05.100Z,3.72
2022-11-25T10:56:12.510Z,7.38
2022-11-25T11:01:22.303Z,5.63
2022-11-25T11:06:35.315Z,4.30
2022-11-25T11:11:49.076Z,3.03
2022-11-25T11:16:56.364Z,3.25
2022-11-25T11:22:16.171Z,2.72
2022-11-25T11:27:25.500Z,2.35
2022-11-25T11:32:29.227Z,3.08
2022-11-25T11:37:36.899Z,3.03
2022-11-25T11:42:59.174Z,2.65
2022-11-25T11:48:13.285Z,3.60
2022-11-25T11:53:30.396Z,2.97
2022-11-25T11:58:57.545Z,2.97
2022-11-25T12:04:20.953Z,3.47
2022-11-25T12:09:25.145Z,2.40
2022-11-25T12:14:50.923Z,2.58
2022-11-25T12:19:58.863Z,2.67
2022-11-25T12:25:09.950Z,2.42
2022-11-25T12:30:16.469Z,2.88
2022-11-25T12:35:57.383Z,3.03
2022-11-25T12:46:24.740Z,3.50
2022-11-25T12:51:54.424Z,2.50
2022-11-25T12:57:22.702Z,2.92
2022-11-25T13:02:42.636Z,2.90
2022-11-25T13:08:13.766Z,2.00
2022-11-25T13:13:36.703Z,2.50
2022-11-25T13:18:43.494Z,3.85
2022-11-25T13:23:49.013Z,2.80
2022-11-25T13:28:52.225Z,3.08
2022-11-25T13:34:09.305Z,3.38
2022-11-25T13:39:16.739Z,2.60
2022-11-25T13:44:25.551Z,3.08
2022-11-25T13:49:32.811Z,2.13
2022-11-25T13:54:55.359Z,2.38
2022-11-25T14:00:05.845Z,3.08
2022-11-25T14:05:27.239Z,2.70
2022-11-25T14:10:46.028Z,2.40
2022-11-25T14:16:09.538Z,3.92
2022-11-25T14:21:21.508Z,3.03
2022-11-25T14:26:48.791Z,3.42
2022-11-25T14:31:59.739Z,1.90
2022-11-25T14:37:12.159Z,2.85
2022-11-25T14:42:17.871Z,3.70
2022-11-25T14:47:28.198Z,3.97
2022-11-25T14:52:35.908Z,3.38
2022-11-25T14:57:43.926Z,3.58
2022-11-25T15:02:57.127Z,19.20
2022-11-25T15:08:08.566Z,3.20
2022-11-25T15:13:24.842Z,4.35
2022-11-25T15:18:26.645Z,3.28
2022-11-25T15:23:34.915Z,4.10
2022-11-25T15:28:39.079Z,5.10
2022-11-25T15:33:42.593Z,3.75
2022-11-25T15:38:46.417Z,4.15
2022-11-25T15:43:52.455Z,6.00
2022-11-25T15:48:58.704Z,5.20
2022-11-25T15:54:05.584Z,5.90
2022-11-25T15:59:40.729Z,5.72
2022-11-25T16:04:43.553Z,4.68
2022-11-25T16:09:51.378Z,6.82
2022-11-25T16:14:53.054Z,6.93
2022-11-25T16:19:54.788Z,8.30
2022-11-25T16:25:02.182Z,9.02
2022-11-25T16:30:04.428Z,11.35
2022-11-25T16:35:15.706Z,14.38
2022-11-25T16:40:19.027Z,12.68
2022-11-25T16:45:26.423Z,14.63
2022-11-25T16:50:28.282Z,14.05
2022-11-25T16:55:30.921Z,13.70
2022-11-25T17:00:32.596Z,11.63
2022-11-25T17:05:36.902Z,12.10
2022-11-25T17:10:39.915Z,18.38
2022-11-25T17:15:41.683Z,18.13
2022-11-25T17:20:44.406Z,11.05
2022-11-25T17:25:49.416Z,11.13
2022-11-25T17:30:51.232Z,10.73
2022-11-25T17:35:52.978Z,10.57
2022-11-25T17:40:54.853Z,9.82
2022-11-25T17:45:56.631Z,8.85
2022-11-25T17:50:59.508Z,9.32
2022-11-25T17:56:03.037Z,10.25
2022-11-25T18:01:04.878Z,10.18
2022-11-25T18:06:07.002Z,9.75
2022-11-25T18:11:15.122Z,9.35
2022-11-25T18:16:18.921Z,9.63
2022-11-25T18:21:23.894Z,8.23
2022-11-25T18:26:25.563Z,6.88
2022-11-25T18:31:28.061Z,8.13
2022-11-25T18:36:29.797Z,7.53
2022-11-25T18:41:31.502Z,8.02
2022-11-25T18:46:41.373Z,8.98
2022-11-25T18:56:53.870Z,11.05
2022-11-25T19:06:57.529Z,11.65
2022-11-25T19:11:59.257Z,13.88
2022-11-25T19:17:03.405Z,13.73
2022-11-25T19:22:15.819Z,14.00
2022-11-25T19:27:24.043Z,13.10
2022-11-25T19:32:28.711Z,13.48
2022-11-25T19:37:30.869Z,16.20
2022-11-25T19:42:35.759Z,14.55
2022-11-25T19:47:37.386Z,16.30
2022-11-25T19:52:40.094Z,16.55
2022-11-25T19:57:41.803Z,18.38
2022-11-25T20:02:44.831Z,17.75
2022-11-25T20:07:47.282Z,19.23
2022-11-25T20:12:49.886Z,23.65
2022-11-25T20:17:54.826Z,18.98
2022-11-25T20:23:01.896Z,16.20
2022-11-25T20:28:07.766Z,16.27
2022-11-25T20:33:09.499Z,14.98
2022-11-25T20:38:20.443Z,14.95
2022-11-25T20:43:38.853Z,14.35
2022-11-25T20:48:40.926Z,15.13
2022-11-25T20:53:46.538Z,15.30
2022-11-25T20:58:48.745Z,15.65
2022-11-25T21:03:50.514Z,18.75
2022-11-25T21:08:58.565Z,18.55
2022-11-25T21:14:00.313Z,15.88
2022-11-25T21:19:02.292Z,15.60
2022-11-25T21:24:16.158Z,19.38
2022-11-25T21:29:21.420Z,20.60
2022-11-25T21:34:26.474Z,23.88
2022-11-25T21:39:31.491Z,15.85
2022-11-25T21:44:43.081Z,14.57
2022-11-25T21:49:45.086Z,14.55
2022-11-25T21:54:47.494Z,16.02
2022-11-25T21:59:49.566Z,21.10
2022-11-25T22:04:52.143Z,14.27
2022-11-25T22:09:53.972Z,11.60
2022-11-25T22:14:58.617Z,11.75
2022-11-25T22:20:00.617Z,11.57
2022-11-25T22:25:03.080Z,9.85
2022-11-25T22:30:05.869Z,11.63
2022-11-25T22:35:19.027Z,13.02
2022-11-25T22:40:20.701Z,9.45
2022-11-25T22:45:34.453Z,9.82
2022-11-25T22:50:36.224Z,9.55
2022-11-25T22:55:37.847Z,10.73
2022-11-25T23:00:42.847Z,10.20
2022-11-25T23:05:44.939Z,11.15
2022-11-25T23:10:47.534Z,10.07
2022-11-25T23:15:54.940Z,12.50
2022-11-25T23:20:56.702Z,12.18
2022-11-25T23:25:58.757Z,10.85
2022-11-25T23:31:02.009Z,9.18
2022-11-25T23:36:09.107Z,9.80
2022-11-25T23:41:16.954Z,10.90
2022-11-25T23:46:22.637Z,9.63
2022-11-25T23:51:25.255Z,9.80
2022-11-25T23:56:28.041Z,9.15
